sensor_id;sensor_type;location;lat;lon;timestamp;P1;durP1;ratioP1;P2;durP2;ratioP2
691;SDS011;70475;50.084;8.576;2024-01-30T00:00:46;10.13;;;6.60;;
691;SDS011;70475;50.084;8.576;2024-01-30T00:03:15;8.52;;;6.28;;
691;SDS011;70475;50.084;8.576;2024-01-30T00:05:42;8.73;;;7.20;;
691;SDS011;70475;50.084;8.576;2024-01-30T00:08:10;12.13;;;7.03;;
691;SDS011;70475;50.084;8.576;2024-01-30T00:10:38;10.07;;;5.65;;
691;SDS011;70475;50.084;8.576;2024-01-30T00:13:05;12.10;;;6.82;;
691;SDS011;70475;50.084;8.576;2024-01-30T00:15:33;9.05;;;8.15;;
691;SDS011;70475;50.084;8.576;2024-01-30T00:18:01;10.05;;;6.40;;
691;SDS011;70475;50.084;8.576;2024-01-30T00:20:30;9.60;;;6.40;;
691;SDS011;70475;50.084;8.576;2024-01-30T00:22:58;12.32;;;9.32;;
691;SDS011;70475;50.084;8.576;2024-01-30T00:25:25;14.23;;;8.90;;
691;SDS011;70475;50.084;8.576;2024-01-30T00:27:53;12.23;;;7.70;;
691;SDS011;70475;50.084;8.576;2024-01-30T00:30:20;13.23;;;9.43;;
691;SDS011;70475;50.084;8.576;2024-01-30T00:32:48;13.98;;;9.48;;
691;SDS011;70475;50.084;8.576;2024-01-30T00:35:16;7.18;;;6.57;;
691;SDS011;70475;50.084;8.576;2024-01-30T00:37:45;10.13;;;6.90;;
691;SDS011;70475;50.084;8.576;2024-01-30T00:40:13;8.05;;;6.38;;
691;SDS011;70475;50.084;8.576;2024-01-30T00:42:42;13.38;;;7.90;;
691;SDS011;70475;50.084;8.576;2024-01-30T00:45:11;10.63;;;7.97;;
691;SDS011;70475;50.084;8.576;2024-01-30T00:47:39;10.68;;;6.95;;
691;SDS011;70475;50.084;8.576;2024-01-30T00:50:15;12.73;;;9.10;;
691;SDS011;70475;50.084;8.576;2024-01-30T00:52:49;10.35;;;9.23;;
691;SDS011;70475;50.084;8.576;2024-01-30T00:55:16;13.68;;;7.57;;
691;SDS011;70475;50.084;8.576;2024-01-30T00:57:44;14.10;;;8.30;;
691;SDS011;70475;50.084;8.576;2024-01-30T01:00:13;8.00;;;7.30;;
691;SDS011;70475;50.084;8.576;2024-01-30T01:02:43;14.40;;;6.53;;
691;SDS011;70475;50.084;8.576;2024-01-30T01:05:11;8.73;;;6.78;;
691;SDS011;70475;50.084;8.576;2024-01-30T01:07:38;16.47;;;10.10;;
691;SDS011;70475;50.084;8.576;2024-01-30T01:10:10;20.50;;;7.90;;
691;SDS011;70475;50.084;8.576;2024-01-30T01:12:40;7.57;;;5.72;;
691;SDS011;70475;50.084;8.576;2024-01-30T01:15:07;9.20;;;8.35;;
691;SDS011;70475;50.084;8.576;2024-01-30T01:17:36;34.20;;;9.60;;
691;SDS011;70475;50.084;8.576;2024-01-30T01:20:04;10.70;;;5.95;;
691;SDS011;70475;50.084;8.576;2024-01-30T01:22:33;10.77;;;6.10;;
691;SDS011;70475;50.084;8.576;2024-01-30T01:25:01;17.23;;;9.85;;
691;SDS011;70475;50.084;8.576;2024-01-30T01:27:30;10.20;;;8.75;;
691;SDS011;70475;50.084;8.576;2024-01-30T01:29:59;15.75;;;9.13;;
691;SDS011;70475;50.084;8.576;2024-01-30T01:32:26;6.40;;;4.70;;
691;SDS011;70475;50.084;8.576;2024-01-30T01:34:54;15.13;;;9.45;;
691;SDS011;70475;50.084;8.576;2024-01-30T01:37:21;11.27;;;10.25;;
691;SDS011;70475;50.084;8.576;2024-01-30T01:39:52;8.33;;;7.53;;
691;SDS011;70475;50.084;8.576;2024-01-30T01:42:20;14.00;;;8.00;;
691;SDS011;70475;50.084;8.576;2024-01-30T01:44:50;8.55;;;7.15;;
691;SDS011;70475;50.084;8.576;2024-01-30T01:47:17;9.50;;;7.22;;
691;SDS011;70475;50.084;8.576;2024-01-30T01:49:45;9.80;;;8.35;;
691;SDS011;70475;50.084;8.576;2024-01-30T01:52:12;9.02;;;7.90;;
691;SDS011;70475;50.084;8.576;2024-01-30T01:54:40;8.60;;;6.67;;
691;SDS011;70475;50.084;8.576;2024-01-30T01:57:08;16.70;;;7.55;;
691;SDS011;70475;50.084;8.576;2024-01-30T01:59:36;19.05;;;6.30;;
691;SDS011;70475;50.084;8.576;2024-01-30T02:02:05;11.30;;;7.10;;
691;SDS011;70475;50.084;8.576;2024-01-30T02:04:38;11.70;;;8.30;;
691;SDS011;70475;50.084;8.576;2024-01-30T02:07:06;7.38;;;6.63;;
691;SDS011;70475;50.084;8.576;2024-01-30T02:09:33;16.42;;;10.65;;
691;SDS011;70475;50.084;8.576;2024-01-30T02:12:01;9.70;;;6.68;;
691;SDS011;70475;50.084;8.576;2024-01-30T02:14:29;10.23;;;5.05;;
691;SDS011;70475;50.084;8.576;2024-01-30T02:16:57;11.50;;;7.05;;
691;SDS011;70475;50.084;8.576;2024-01-30T02:19:25;9.50;;;7.70;;
691;SDS011;70475;50.084;8.576;2024-01-30T02:21:55;9.82;;;8.50;;
691;SDS011;70475;50.084;8.576;2024-01-30T02:24:23;5.57;;;5.05;;
691;SDS011;70475;50.084;8.576;2024-01-30T02:26:50;9.93;;;7.88;;
691;SDS011;70475;50.084;8.576;2024-01-30T02:29:18;20.58;;;9.35;;
691;SDS011;70475;50.084;8.576;2024-01-30T02:31:45;8.60;;;6.72;;
691;SDS011;70475;50.084;8.576;2024-01-30T02:34:13;9.23;;;6.97;;
691;SDS011;70475;50.084;8.576;2024-01-30T02:36:42;9.13;;;6.05;;
691;SDS011;70475;50.084;8.576;2024-01-30T02:39:11;8.27;;;5.47;;
691;SDS011;70475;50.084;8.576;2024-01-30T02:41:38;8.27;;;7.47;;
691;SDS011;70475;50.084;8.576;2024-01-30T02:44:06;15.07;;;9.02;;
691;SDS011;70475;50.084;8.576;2024-01-30T02:46:33;9.48;;;7.05;;
691;SDS011;70475;50.084;8.576;2024-01-30T02:49:01;11.10;;;6.70;;
691;SDS011;70475;50.084;8.576;2024-01-30T02:51:29;12.88;;;7.38;;
691;SDS011;70475;50.084;8.576;2024-01-30T02:53:56;12.70;;;6.65;;
691;SDS011;70475;50.084;8.576;2024-01-30T02:56:25;8.88;;;5.82;;
691;SDS011;70475;50.084;8.576;2024-01-30T02:58:53;17.13;;;9.60;;
691;SDS011;70475;50.084;8.576;2024-01-30T03:01:20;17.92;;;8.27;;
691;SDS011;70475;50.084;8.576;2024-01-30T03:03:48;11.77;;;8.43;;
691;SDS011;70475;50.084;8.576;2024-01-30T03:06:16;11.07;;;8.98;;
691;SDS011;70475;50.084;8.576;2024-01-30T03:08:46;6.72;;;6.10;;
691;SDS011;70475;50.084;8.576;2024-01-30T03:11:13;12.53;;;9.03;;
691;SDS011;70475;50.084;8.576;2024-01-30T03:13:42;11.25;;;7.90;;
691;SDS011;70475;50.084;8.576;2024-01-30T03:16:10;9.88;;;6.85;;
691;SDS011;70475;50.084;8.576;2024-01-30T03:18:37;9.82;;;8.80;;
691;SDS011;70475;50.084;8.576;2024-01-30T03:21:05;11.68;;;7.32;;
691;SDS011;70475;50.084;8.576;2024-01-30T03:23:32;9.27;;;8.27;;
691;SDS011;70475;50.084;8.576;2024-01-30T03:26:00;10.52;;;6.95;;
691;SDS011;70475;50.084;8.576;2024-01-30T03:28:28;9.07;;;6.90;;
691;SDS011;70475;50.084;8.576;2024-01-30T03:30:56;9.75;;;8.90;;
691;SDS011;70475;50.084;8.576;2024-01-30T03:33:24;8.32;;;6.10;;
691;SDS011;70475;50.084;8.576;2024-01-30T03:35:52;8.35;;;7.55;;
691;SDS011;70475;50.084;8.576;2024-01-30T03:38:19;9.63;;;8.05;;
691;SDS011;70475;50.084;8.576;2024-01-30T03:40:47;10.13;;;6.55;;
691;SDS011;70475;50.084;8.576;2024-01-30T03:43:14;21.40;;;11.23;;
691;SDS011;70475;50.084;8.576;2024-01-30T03:45:42;11.20;;;8.40;;
691;SDS011;70475;50.084;8.576;2024-01-30T03:48:11;11.55;;;8.52;;
691;SDS011;70475;50.084;8.576;2024-01-30T03:50:38;10.60;;;6.60;;
691;SDS011;70475;50.084;8.576;2024-01-30T03:53:06;12.27;;;7.43;;
691;SDS011;70475;50.084;8.576;2024-01-30T03:55:33;18.60;;;9.10;;
691;SDS011;70475;50.084;8.576;2024-01-30T03:58:01;11.65;;;7.72;;
691;SDS011;70475;50.084;8.576;2024-01-30T04:00:28;6.40;;;5.57;;
691;SDS011;70475;50.084;8.576;2024-01-30T04:02:56;10.65;;;9.13;;
691;SDS011;70475;50.084;8.576;2024-01-30T04:05:25;8.60;;;6.93;;
691;SDS011;70475;50.084;8.576;2024-01-30T04:07:53;6.88;;;5.85;;
691;SDS011;70475;50.084;8.576;2024-01-30T04:10:20;7.72;;;5.18;;
691;SDS011;70475;50.084;8.576;2024-01-30T04:12:48;8.68;;;6.80;;
691;SDS011;70475;50.084;8.576;2024-01-30T04:15:15;10.98;;;6.60;;
691;SDS011;70475;50.084;8.576;2024-01-30T04:17:43;11.32;;;6.70;;
691;SDS011;70475;50.084;8.576;2024-01-30T04:20:13;9.57;;;8.10;;
691;SDS011;70475;50.084;8.576;2024-01-30T04:22:44;11.90;;;5.63;;
691;SDS011;70475;50.084;8.576;2024-01-30T04:25:12;6.32;;;5.65;;
691;SDS011;70475;50.084;8.576;2024-01-30T04:27:40;8.80;;;6.45;;
691;SDS011;70475;50.084;8.576;2024-01-30T04:30:08;12.93;;;8.38;;
691;SDS011;70475;50.084;8.576;2024-01-30T04:32:36;14.75;;;6.70;;
691;SDS011;70475;50.084;8.576;2024-01-30T04:35:04;9.05;;;6.90;;
691;SDS011;70475;50.084;8.576;2024-01-30T04:37:36;8.20;;;6.20;;
691;SDS011;70475;50.084;8.576;2024-01-30T04:40:06;6.90;;;6.30;;
691;SDS011;70475;50.084;8.576;2024-01-30T04:42:35;12.52;;;5.85;;
691;SDS011;70475;50.084;8.576;2024-01-30T04:45:03;15.52;;;6.35;;
691;SDS011;70475;50.084;8.576;2024-01-30T04:47:32;8.48;;;5.35;;
691;SDS011;70475;50.084;8.576;2024-01-30T04:50:00;8.05;;;7.28;;
691;SDS011;70475;50.084;8.576;2024-01-30T04:52:28;10.35;;;5.72;;
691;SDS011;70475;50.084;8.576;2024-01-30T04:54:56;5.85;;;5.35;;
691;SDS011;70475;50.084;8.576;2024-01-30T04:57:25;7.60;;;6.90;;
691;SDS011;70475;50.084;8.576;2024-01-30T04:59:53;5.32;;;4.80;;
691;SDS011;70475;50.084;8.576;2024-01-30T05:02:20;6.28;;;4.75;;
691;SDS011;70475;50.084;8.576;2024-01-30T05:04:48;7.13;;;6.07;;
691;SDS011;70475;50.084;8.576;2024-01-30T05:07:16;5.68;;;4.63;;
691;SDS011;70475;50.084;8.576;2024-01-30T05:09:43;10.57;;;6.40;;
691;SDS011;70475;50.084;8.576;2024-01-30T05:12:11;8.85;;;5.72;;
691;SDS011;70475;50.084;8.576;2024-01-30T05:14:40;9.55;;;6.72;;
691;SDS011;70475;50.084;8.576;2024-01-30T05:17:08;6.72;;;5.45;;
691;SDS011;70475;50.084;8.576;2024-01-30T05:19:36;6.53;;;4.93;;
691;SDS011;70475;50.084;8.576;2024-01-30T05:22:04;6.63;;;5.30;;
691;SDS011;70475;50.084;8.576;2024-01-30T05:24:31;7.13;;;6.35;;
691;SDS011;70475;50.084;8.576;2024-01-30T05:26:59;9.05;;;4.57;;
691;SDS011;70475;50.084;8.576;2024-01-30T05:29:27;6.00;;;5.40;;
691;SDS011;70475;50.084;8.576;2024-01-30T05:31:55;7.70;;;6.60;;
691;SDS011;70475;50.084;8.576;2024-01-30T05:34:23;3.78;;;2.88;;
691;SDS011;70475;50.084;8.576;2024-01-30T05:36:50;10.27;;;7.50;;
691;SDS011;70475;50.084;8.576;2024-01-30T05:39:18;6.78;;;5.93;;
691;SDS011;70475;50.084;8.576;2024-01-30T05:41:46;8.35;;;3.80;;
691;SDS011;70475;50.084;8.576;2024-01-30T05:44:13;5.10;;;4.53;;
691;SDS011;70475;50.084;8.576;2024-01-30T05:46:41;7.53;;;5.80;;
691;SDS011;70475;50.084;8.576;2024-01-30T05:49:10;11.77;;;5.07;;
691;SDS011;70475;50.084;8.576;2024-01-30T05:51:38;6.15;;;3.60;;
691;SDS011;70475;50.084;8.576;2024-01-30T05:54:05;11.00;;;6.03;;
691;SDS011;70475;50.084;8.576;2024-01-30T05:56:33;9.32;;;4.47;;
691;SDS011;70475;50.084;8.576;2024-01-30T05:59:01;6.38;;;5.53;;
691;SDS011;70475;50.084;8.576;2024-01-30T06:01:28;7.15;;;4.88;;
691;SDS011;70475;50.084;8.576;2024-01-30T06:03:56;6.70;;;3.53;;
691;SDS011;70475;50.084;8.576;2024-01-30T06:06:25;12.38;;;6.97;;
691;SDS011;70475;50.084;8.576;2024-01-30T06:08:52;11.60;;;6.07;;
691;SDS011;70475;50.084;8.576;2024-01-30T06:11:21;5.53;;;4.97;;
691;SDS011;70475;50.084;8.576;2024-01-30T06:13:49;4.95;;;4.43;;
691;SDS011;70475;50.084;8.576;2024-01-30T06:16:16;8.05;;;5.70;;
691;SDS011;70475;50.084;8.576;2024-01-30T06:18:46;5.88;;;4.70;;
691;SDS011;70475;50.084;8.576;2024-01-30T06:21:13;3.67;;;3.25;;
691;SDS011;70475;50.084;8.576;2024-01-30T06:23:42;8.18;;;6.68;;
691;SDS011;70475;50.084;8.576;2024-01-30T06:26:10;8.32;;;4.10;;
691;SDS011;70475;50.084;8.576;2024-01-30T06:28:37;6.70;;;4.60;;
691;SDS011;70475;50.084;8.576;2024-01-30T06:31:05;4.15;;;3.67;;
691;SDS011;70475;50.084;8.576;2024-01-30T06:33:32;4.32;;;3.90;;
691;SDS011;70475;50.084;8.576;2024-01-30T06:36:00;5.50;;;4.82;;
691;SDS011;70475;50.084;8.576;2024-01-30T06:38:28;4.95;;;4.57;;
691;SDS011;70475;50.084;8.576;2024-01-30T06:40:56;6.43;;;5.47;;
691;SDS011;70475;50.084;8.576;2024-01-30T06:43:24;5.25;;;4.75;;
691;SDS011;70475;50.084;8.576;2024-01-30T06:45:52;4.88;;;3.65;;
691;SDS011;70475;50.084;8.576;2024-01-30T06:48:19;13.70;;;5.70;;
691;SDS011;70475;50.084;8.576;2024-01-30T06:50:47;3.85;;;2.97;;
691;SDS011;70475;50.084;8.576;2024-01-30T06:53:15;7.53;;;4.85;;
691;SDS011;70475;50.084;8.576;2024-01-30T06:55:43;7.85;;;6.68;;
691;SDS011;70475;50.084;8.576;2024-01-30T06:58:12;5.13;;;4.55;;
691;SDS011;70475;50.084;8.576;2024-01-30T07:00:39;6.63;;;5.97;;
691;SDS011;70475;50.084;8.576;2024-01-30T07:03:08;4.10;;;3.80;;
691;SDS011;70475;50.084;8.576;2024-01-30T07:05:35;10.40;;;5.10;;
691;SDS011;70475;50.084;8.576;2024-01-30T07:08:03;6.40;;;4.88;;
691;SDS011;70475;50.084;8.576;2024-01-30T07:10:31;6.60;;;4.85;;
691;SDS011;70475;50.084;8.576;2024-01-30T07:13:00;6.20;;;5.60;;
691;SDS011;70475;50.084;8.576;2024-01-30T07:15:29;8.02;;;5.85;;
691;SDS011;70475;50.084;8.576;2024-01-30T07:17:56;9.88;;;7.68;;
691;SDS011;70475;50.084;8.576;2024-01-30T07:20:24;5.70;;;4.72;;
691;SDS011;70475;50.084;8.576;2024-01-30T07:22:52;9.30;;;5.93;;
691;SDS011;70475;50.084;8.576;2024-01-30T07:25:19;7.17;;;5.20;;
691;SDS011;70475;50.084;8.576;2024-01-30T07:27:47;9.43;;;6.18;;
691;SDS011;70475;50.084;8.576;2024-01-30T07:30:15;8.07;;;5.88;;
691;SDS011;70475;50.084;8.576;2024-01-30T07:32:45;6.22;;;3.90;;
691;SDS011;70475;50.084;8.576;2024-01-30T07:35:13;9.15;;;6.47;;
691;SDS011;70475;50.084;8.576;2024-01-30T07:37:41;7.60;;;4.28;;
691;SDS011;70475;50.084;8.576;2024-01-30T07:40:09;10.20;;;7.47;;
691;SDS011;70475;50.084;8.576;2024-01-30T07:42:37;5.65;;;3.78;;
691;SDS011;70475;50.084;8.576;2024-01-30T07:45:05;6.72;;;5.45;;
691;SDS011;70475;50.084;8.576;2024-01-30T07:47:33;6.22;;;4.78;;
691;SDS011;70475;50.084;8.576;2024-01-30T07:50:02;5.03;;;4.60;;
691;SDS011;70475;50.084;8.576;2024-01-30T07:52:30;15.82;;;5.72;;
691;SDS011;70475;50.084;8.576;2024-01-30T07:54:58;5.55;;;4.00;;
691;SDS011;70475;50.084;8.576;2024-01-30T07:57:26;5.27;;;3.47;;
691;SDS011;70475;50.084;8.576;2024-01-30T07:59:53;7.70;;;5.25;;
691;SDS011;70475;50.084;8.576;2024-01-30T08:02:21;5.72;;;5.30;;
691;SDS011;70475;50.084;8.576;2024-01-30T08:04:48;7.32;;;5.30;;
691;SDS011;70475;50.084;8.576;2024-01-30T08:07:17;5.82;;;4.63;;
691;SDS011;70475;50.084;8.576;2024-01-30T08:09:45;8.27;;;6.03;;
691;SDS011;70475;50.084;8.576;2024-01-30T08:12:13;4.75;;;3.78;;
691;SDS011;70475;50.084;8.576;2024-01-30T08:14:41;6.00;;;4.15;;
691;SDS011;70475;50.084;8.576;2024-01-30T08:17:08;8.40;;;6.03;;
691;SDS011;70475;50.084;8.576;2024-01-30T08:19:36;5.43;;;4.97;;
691;SDS011;70475;50.084;8.576;2024-01-30T08:22:04;12.00;;;6.55;;
691;SDS011;70475;50.084;8.576;2024-01-30T08:24:33;9.45;;;7.28;;
691;SDS011;70475;50.084;8.576;2024-01-30T08:27:00;7.25;;;6.55;;
691;SDS011;70475;50.084;8.576;2024-01-30T08:29:28;10.18;;;6.45;;
691;SDS011;70475;50.084;8.576;2024-01-30T08:31:56;7.67;;;6.67;;
691;SDS011;70475;50.084;8.576;2024-01-30T08:34:25;8.60;;;6.85;;
691;SDS011;70475;50.084;8.576;2024-01-30T08:36:53;6.90;;;5.03;;
691;SDS011;70475;50.084;8.576;2024-01-30T08:39:21;6.33;;;5.80;;
691;SDS011;70475;50.084;8.576;2024-01-30T08:41:50;7.78;;;6.40;;
691;SDS011;70475;50.084;8.576;2024-01-30T08:44:17;9.73;;;6.97;;
691;SDS011;70475;50.084;8.576;2024-01-30T08:46:45;11.20;;;7.20;;
691;SDS011;70475;50.084;8.576;2024-01-30T08:49:13;8.95;;;5.70;;
691;SDS011;70475;50.084;8.576;2024-01-30T08:51:41;11.13;;;7.27;;
691;SDS011;70475;50.084;8.576;2024-01-30T08:54:08;9.70;;;6.60;;
691;SDS011;70475;50.084;8.576;2024-01-30T08:56:36;9.30;;;8.30;;
691;SDS011;70475;50.084;8.576;2024-01-30T08:59:05;9.33;;;6.80;;
691;SDS011;70475;50.084;8.576;2024-01-30T09:01:32;11.50;;;8.10;;
691;SDS011;70475;50.084;8.576;2024-01-30T09:04:00;8.07;;;7.07;;
691;SDS011;70475;50.084;8.576;2024-01-30T09:06:29;11.33;;;7.93;;
691;SDS011;70475;50.084;8.576;2024-01-30T09:08:56;14.70;;;6.87;;
691;SDS011;70475;50.084;8.576;2024-01-30T09:11:24;13.30;;;6.80;;
691;SDS011;70475;50.084;8.576;2024-01-30T09:13:52;8.80;;;7.20;;
691;SDS011;70475;50.084;8.576;2024-01-30T09:16:21;9.20;;;7.60;;
691;SDS011;70475;50.084;8.576;2024-01-30T09:18:48;10.60;;;7.93;;
691;SDS011;70475;50.084;8.576;2024-01-30T09:21:16;11.57;;;7.90;;
691;SDS011;70475;50.084;8.576;2024-01-30T09:23:43;11.33;;;8.93;;
691;SDS011;70475;50.084;8.576;2024-01-30T09:26:11;10.47;;;8.60;;
691;SDS011;70475;50.084;8.576;2024-01-30T09:28:39;15.30;;;9.97;;
691;SDS011;70475;50.084;8.576;2024-01-30T09:31:09;14.10;;;8.90;;
691;SDS011;70475;50.084;8.576;2024-01-30T09:33:38;17.43;;;12.10;;
691;SDS011;70475;50.084;8.576;2024-01-30T09:36:06;16.03;;;12.20;;
691;SDS011;70475;50.084;8.576;2024-01-30T09:38:35;14.10;;;8.77;;
691;SDS011;70475;50.084;8.576;2024-01-30T09:41:03;10.90;;;7.70;;
691;SDS011;70475;50.084;8.576;2024-01-30T09:43:36;12.37;;;9.73;;
691;SDS011;70475;50.084;8.576;2024-01-30T09:46:05;13.57;;;8.80;;
691;SDS011;70475;50.084;8.576;2024-01-30T09:48:35;12.70;;;10.67;;
691;SDS011;70475;50.084;8.576;2024-01-30T09:51:04;15.13;;;10.77;;
691;SDS011;70475;50.084;8.576;2024-01-30T09:53:32;14.70;;;9.87;;
691;SDS011;70475;50.084;8.576;2024-01-30T09:56:00;13.13;;;11.17;;
691;SDS011;70475;50.084;8.576;2024-01-30T09:58:29;12.73;;;10.60;;
691;SDS011;70475;50.084;8.576;2024-01-30T10:00:57;18.37;;;13.33;;
691;SDS011;70475;50.084;8.576;2024-01-30T10:03:25;16.80;;;11.70;;
691;SDS011;70475;50.084;8.576;2024-01-30T10:05:53;16.23;;;12.73;;
691;SDS011;70475;50.084;8.576;2024-01-30T10:08:23;20.23;;;12.20;;
691;SDS011;70475;50.084;8.576;2024-01-30T10:10:51;13.30;;;11.47;;
691;SDS011;70475;50.084;8.576;2024-01-30T10:13:18;19.33;;;11.97;;
691;SDS011;70475;50.084;8.576;2024-01-30T10:15:47;13.70;;;11.13;;
691;SDS011;70475;50.084;8.576;2024-01-30T10:18:14;22.00;;;13.80;;
691;SDS011;70475;50.084;8.576;2024-01-30T10:20:42;16.37;;;12.13;;
691;SDS011;70475;50.084;8.576;2024-01-30T10:23:09;15.73;;;11.43;;
691;SDS011;70475;50.084;8.576;2024-01-30T10:25:40;19.33;;;11.63;;
691;SDS011;70475;50.084;8.576;2024-01-30T10:28:07;21.50;;;13.20;;
691;SDS011;70475;50.084;8.576;2024-01-30T10:30:35;26.70;;;11.10;;
691;SDS011;70475;50.084;8.576;2024-01-30T10:33:03;21.03;;;13.80;;
691;SDS011;70475;50.084;8.576;2024-01-30T10:35:31;14.00;;;10.50;;
691;SDS011;70475;50.084;8.576;2024-01-30T10:38:00;17.63;;;11.80;;
691;SDS011;70475;50.084;8.576;2024-01-30T10:40:28;14.47;;;9.70;;
691;SDS011;70475;50.084;8.576;2024-01-30T10:42:58;15.40;;;11.80;;
691;SDS011;70475;50.084;8.576;2024-01-30T10:45:30;16.33;;;11.00;;
691;SDS011;70475;50.084;8.576;2024-01-30T10:47:59;10.13;;;8.70;;
691;SDS011;70475;50.084;8.576;2024-01-30T10:50:27;14.60;;;9.90;;
691;SDS011;70475;50.084;8.576;2024-01-30T10:52:56;13.93;;;11.70;;
691;SDS011;70475;50.084;8.576;2024-01-30T10:55:26;11.70;;;9.40;;
691;SDS011;70475;50.084;8.576;2024-01-30T10:57:58;13.00;;;9.80;;
691;SDS011;70475;50.084;8.576;2024-01-30T11:00:27;11.50;;;8.80;;
691;SDS011;70475;50.084;8.576;2024-01-30T11:02:54;10.17;;;8.30;;
691;SDS011;70475;50.084;8.576;2024-01-30T11:05:26;12.33;;;8.13;;
691;SDS011;70475;50.084;8.576;2024-01-30T11:07:59;12.70;;;9.73;;
691;SDS011;70475;50.084;8.576;2024-01-30T11:10:44;12.00;;;9.60;;
691;SDS011;70475;50.084;8.576;2024-01-30T11:13:14;11.90;;;8.57;;
691;SDS011;70475;50.084;8.576;2024-01-30T11:15:42;11.17;;;9.00;;
691;SDS011;70475;50.084;8.576;2024-01-30T11:18:10;15.57;;;8.67;;
691;SDS011;70475;50.084;8.576;2024-01-30T11:20:37;11.73;;;8.33;;
691;SDS011;70475;50.084;8.576;2024-01-30T11:23:11;15.90;;;8.43;;
691;SDS011;70475;50.084;8.576;2024-01-30T11:25:39;13.20;;;8.67;;
691;SDS011;70475;50.084;8.576;2024-01-30T11:28:06;12.27;;;7.97;;
691;SDS011;70475;50.084;8.576;2024-01-30T11:30:42;11.97;;;7.63;;
691;SDS011;70475;50.084;8.576;2024-01-30T11:33:10;14.20;;;8.97;;
691;SDS011;70475;50.084;8.576;2024-01-30T11:35:39;10.00;;;8.47;;
691;SDS011;70475;50.084;8.576;2024-01-30T11:38:09;10.23;;;8.07;;
691;SDS011;70475;50.084;8.576;2024-01-30T11:40:38;8.30;;;7.00;;
691;SDS011;70475;50.084;8.576;2024-01-30T11:43:07;15.60;;;10.03;;
691;SDS011;70475;50.084;8.576;2024-01-30T11:45:37;11.57;;;7.83;;
691;SDS011;70475;50.084;8.576;2024-01-30T11:48:06;14.73;;;8.83;;
691;SDS011;70475;50.084;8.576;2024-01-30T11:50:37;14.03;;;8.40;;
691;SDS011;70475;50.084;8.576;2024-01-30T11:53:05;10.40;;;7.27;;
691;SDS011;70475;50.084;8.576;2024-01-30T11:55:33;16.50;;;7.97;;
691;SDS011;70475;50.084;8.576;2024-01-30T11:58:02;11.97;;;7.60;;
691;SDS011;70475;50.084;8.576;2024-01-30T12:00:31;9.13;;;8.23;;
691;SDS011;70475;50.084;8.576;2024-01-30T12:03:01;10.30;;;8.40;;
691;SDS011;70475;50.084;8.576;2024-01-30T12:05:30;8.40;;;5.90;;
691;SDS011;70475;50.084;8.576;2024-01-30T12:07:58;5.93;;;5.33;;
691;SDS011;70475;50.084;8.576;2024-01-30T12:10:27;8.37;;;6.60;;
691;SDS011;70475;50.084;8.576;2024-01-30T12:12:56;8.87;;;5.90;;
691;SDS011;70475;50.084;8.576;2024-01-30T12:15:25;14.50;;;7.83;;
691;SDS011;70475;50.084;8.576;2024-01-30T12:18:03;10.37;;;6.57;;
691;SDS011;70475;50.084;8.576;2024-01-30T12:20:33;13.90;;;7.63;;
691;SDS011;70475;50.084;8.576;2024-01-30T12:23:01;8.90;;;7.57;;
691;SDS011;70475;50.084;8.576;2024-01-30T12:25:29;14.20;;;9.67;;
691;SDS011;70475;50.084;8.576;2024-01-30T12:27:58;13.27;;;8.33;;
691;SDS011;70475;50.084;8.576;2024-01-30T12:30:25;10.07;;;8.00;;
691;SDS011;70475;50.084;8.576;2024-01-30T12:32:55;14.53;;;7.87;;
691;SDS011;70475;50.084;8.576;2024-01-30T12:35:25;7.80;;;6.67;;
691;SDS011;70475;50.084;8.576;2024-01-30T12:37:58;13.30;;;7.70;;
691;SDS011;70475;50.084;8.576;2024-01-30T12:40:25;12.70;;;7.87;;
691;SDS011;70475;50.084;8.576;2024-01-30T12:42:53;7.77;;;6.13;;
691;SDS011;70475;50.084;8.576;2024-01-30T12:45:21;9.97;;;7.40;;
691;SDS011;70475;50.084;8.576;2024-01-30T12:47:49;10.10;;;7.93;;
691;SDS011;70475;50.084;8.576;2024-01-30T12:50:18;11.63;;;7.97;;
691;SDS011;70475;50.084;8.576;2024-01-30T12:52:47;7.70;;;6.07;;
691;SDS011;70475;50.084;8.576;2024-01-30T12:55:15;11.60;;;7.47;;
691;SDS011;70475;50.084;8.576;2024-01-30T12:57:44;7.97;;;6.47;;
691;SDS011;70475;50.084;8.576;2024-01-30T13:00:12;10.67;;;6.83;;
691;SDS011;70475;50.084;8.576;2024-01-30T13:02:39;9.63;;;7.10;;
691;SDS011;70475;50.084;8.576;2024-01-30T13:05:09;8.40;;;6.70;;
691;SDS011;70475;50.084;8.576;2024-01-30T13:07:37;9.97;;;6.77;;
691;SDS011;70475;50.084;8.576;2024-01-30T13:10:06;7.73;;;6.47;;
691;SDS011;70475;50.084;8.576;2024-01-30T13:12:34;12.80;;;7.83;;
691;SDS011;70475;50.084;8.576;2024-01-30T13:15:02;15.83;;;7.73;;
691;SDS011;70475;50.084;8.576;2024-01-30T13:17:31;7.13;;;6.40;;
691;SDS011;70475;50.084;8.576;2024-01-30T13:19:59;11.63;;;7.90;;
691;SDS011;70475;50.084;8.576;2024-01-30T13:22:37;12.87;;;9.23;;
691;SDS011;70475;50.084;8.576;2024-01-30T13:25:07;7.60;;;6.53;;
691;SDS011;70475;50.084;8.576;2024-01-30T13:27:35;12.63;;;8.50;;
691;SDS011;70475;50.084;8.576;2024-01-30T13:30:03;7.87;;;6.80;;
691;SDS011;70475;50.084;8.576;2024-01-30T13:32:31;18.93;;;9.10;;
691;SDS011;70475;50.084;8.576;2024-01-30T13:34:59;10.33;;;7.23;;
691;SDS011;70475;50.084;8.576;2024-01-30T13:37:27;10.93;;;7.20;;
691;SDS011;70475;50.084;8.576;2024-01-30T13:39:55;10.73;;;7.90;;
691;SDS011;70475;50.084;8.576;2024-01-30T13:42:24;12.03;;;8.53;;
691;SDS011;70475;50.084;8.576;2024-01-30T13:44:52;8.90;;;6.87;;
691;SDS011;70475;50.084;8.576;2024-01-30T13:47:20;13.07;;;7.90;;
691;SDS011;70475;50.084;8.576;2024-01-30T13:49:47;9.73;;;7.60;;
691;SDS011;70475;50.084;8.576;2024-01-30T13:52:15;12.17;;;8.70;;
691;SDS011;70475;50.084;8.576;2024-01-30T13:54:46;9.07;;;6.20;;
691;SDS011;70475;50.084;8.576;2024-01-30T13:57:13;12.00;;;6.87;;
691;SDS011;70475;50.084;8.576;2024-01-30T13:59:42;14.20;;;9.20;;
691;SDS011;70475;50.084;8.576;2024-01-30T14:02:10;11.47;;;8.97;;
691;SDS011;70475;50.084;8.576;2024-01-30T14:04:38;10.93;;;7.30;;
691;SDS011;70475;50.084;8.576;2024-01-30T14:07:06;11.90;;;8.00;;
691;SDS011;70475;50.084;8.576;2024-01-30T14:09:34;10.37;;;7.83;;
691;SDS011;70475;50.084;8.576;2024-01-30T14:12:02;12.03;;;7.20;;
691;SDS011;70475;50.084;8.576;2024-01-30T14:14:30;13.87;;;7.47;;
691;SDS011;70475;50.084;8.576;2024-01-30T14:17:02;12.50;;;6.80;;
691;SDS011;70475;50.084;8.576;2024-01-30T14:19:32;10.50;;;8.10;;
691;SDS011;70475;50.084;8.576;2024-01-30T14:22:00;10.30;;;7.10;;
691;SDS011;70475;50.084;8.576;2024-01-30T14:24:27;14.17;;;8.63;;
691;SDS011;70475;50.084;8.576;2024-01-30T14:26:55;12.07;;;7.60;;
691;SDS011;70475;50.084;8.576;2024-01-30T14:29:22;9.77;;;7.53;;
691;SDS011;70475;50.084;8.576;2024-01-30T14:31:50;11.30;;;6.43;;
691;SDS011;70475;50.084;8.576;2024-01-30T14:34:19;12.30;;;7.50;;
691;SDS011;70475;50.084;8.576;2024-01-30T14:36:47;12.83;;;8.03;;
691;SDS011;70475;50.084;8.576;2024-01-30T14:39:14;9.40;;;7.40;;
691;SDS011;70475;50.084;8.576;2024-01-30T14:41:42;11.93;;;7.87;;
691;SDS011;70475;50.084;8.576;2024-01-30T14:44:10;13.33;;;8.50;;
691;SDS011;70475;50.084;8.576;2024-01-30T14:46:37;15.73;;;9.30;;
691;SDS011;70475;50.084;8.576;2024-01-30T14:49:05;11.60;;;7.53;;
691;SDS011;70475;50.084;8.576;2024-01-30T14:51:35;10.13;;;9.23;;
691;SDS011;70475;50.084;8.576;2024-01-30T14:54:04;11.30;;;7.37;;
691;SDS011;70475;50.084;8.576;2024-01-30T14:56:31;10.90;;;8.30;;
691;SDS011;70475;50.084;8.576;2024-01-30T14:58:59;13.33;;;8.50;;
691;SDS011;70475;50.084;8.576;2024-01-30T15:01:27;9.40;;;7.20;;
691;SDS011;70475;50.084;8.576;2024-01-30T15:03:55;9.10;;;8.07;;
691;SDS011;70475;50.084;8.576;2024-01-30T15:06:22;10.97;;;8.77;;
691;SDS011;70475;50.084;8.576;2024-01-30T15:08:52;12.60;;;7.40;;
691;SDS011;70475;50.084;8.576;2024-01-30T15:11:20;8.77;;;7.40;;
691;SDS011;70475;50.084;8.576;2024-01-30T15:13:48;14.50;;;7.53;;